Time;durP1;ratioP1;P1;durP2;ratioP2;P2;SDS_P1;SDS_P2;PMS_P1;PMS_P2;Temp;Humidity;BMP_temperature;BMP_pressure;BME280_temperature;BME280_humidity;BME280_pressure;Samples;Min_cycle;Max_cycle;Signal;HPM_P1;HPM_P2
2023/08/07 00:00:39;;;;;;;1.30;1.20;;;;;;;18.56;100.00;64925.44;5071079;28;20277;-56
2023/08/07 00:03:05;;;;;;;1.10;1.00;;;;;;;18.50;100.00;64916.25;5052771;28;20200;-55
2023/08/07 00:05:30;;;;;;;1.23;1.13;;;;;;;18.76;100.00;64945.50;5071159;28;20573;-54
2023/08/07 00:07:56;;;;;;;1.42;1.08;;;;;;;18.74;99.87;64947.84;5071124;28;20238;-60
2023/08/07 00:10:22;;;;;;;1.25;1.13;;;;;;;18.73;100.00;64941.63;5070868;28;20250;-55
2023/08/07 00:12:47;;;;;;;0.90;0.90;;;;;;;18.60;100.00;64929.84;5071399;28;20634;-55
2023/08/07 00:15:13;;;;;;;1.23;1.13;;;;;;;18.51;100.00;64923.00;5071080;28;20204;-55
2023/08/07 00:17:38;;;;;;;1.35;1.25;;;;;;;18.47;100.00;64915.50;5071416;28;20216;-55
2023/08/07 00:20:05;;;;;;;1.58;1.40;;;;;;;18.34;100.00;64901.69;5071417;28;20342;-55
2023/08/07 00:22:31;;;;;;;1.60;1.50;;;;;;;18.34;100.00;64899.69;5071155;28;20235;-56
2023/08/07 00:24:57;;;;;;;1.42;1.33;;;;;;;18.39;100.00;64905.22;5071067;28;20683;-56
2023/08/07 00:27:22;;;;;;;1.40;1.30;;;;;;;18.47;100.00;64918.03;5070917;28;20531;-56
2023/08/07 00:29:48;;;;;;;1.15;1.10;;;;;;;18.51;99.35;64922.44;5071323;28;20229;-56
2023/08/07 00:32:13;;;;;;;1.40;1.30;;;;;;;18.54;98.34;64923.78;5071329;28;20286;-56
2023/08/07 00:34:39;;;;;;;1.80;1.50;;;;;;;18.50;99.20;64918.81;5070822;28;20295;-56
2023/08/07 00:37:05;;;;;;;1.27;1.17;;;;;;;18.51;99.57;64919.91;5070517;28;20616;-55
2023/08/07 00:39:30;;;;;;;1.35;1.25;;;;;;;18.48;98.74;64917.16;5071002;28;20177;-56
2023/08/07 00:41:55;;;;;;;2.22;1.10;;;;;;;18.35;98.66;64907.88;5070933;28;20262;-61
2023/08/07 00:44:23;;;;;;;1.15;1.15;;;;;;;18.47;98.65;64916.03;5070603;28;20634;-55
2023/08/07 00:46:48;;;;;;;1.70;1.60;;;;;;;18.35;96.85;64903.34;5070708;28;20219;-56
2023/08/07 00:49:14;;;;;;;1.75;1.52;;;;;;;18.25;98.91;64892.31;5071005;28;20200;-55
2023/08/07 00:51:40;;;;;;;1.40;1.30;;;;;;;18.20;99.55;64886.78;5070776;28;20217;-56
2023/08/07 00:54:09;;;;;;;1.70;1.60;;;;;;;18.23;99.04;64889.56;5052765;28;20185;-55
2023/08/07 00:56:35;;;;;;;1.70;1.60;;;;;;;18.02;98.73;64864.41;5052586;28;20278;-56
2023/08/07 00:59:01;;;;;;;2.13;1.38;;;;;;;18.08;98.19;64873.56;5070959;28;20192;-56
2023/08/07 01:01:27;;;;;;;2.97;1.60;;;;;;;18.08;98.03;64873.03;5070464;28;20638;-56
2023/08/07 01:03:53;;;;;;;1.77;1.60;;;;;;;18.15;98.31;64881.28;5070287;28;20687;-55
2023/08/07 01:06:19;;;;;;;1.60;1.50;;;;;;;18.22;98.01;64888.47;5070334;28;20239;-55
2023/08/07 01:08:45;;;;;;;1.80;1.70;;;;;;;18.19;98.29;64888.25;5035669;28;20185;-56
2023/08/07 01:11:34;;;;;;;1.55;1.45;;;;;;;18.27;97.79;64897.06;5052274;28;20216;-55
2023/08/07 01:14:03;;;;;;;1.63;1.52;;;;;;;18.23;99.57;64887.56;5070274;28;20317;-55
2023/08/07 01:16:45;;;;;;;1.60;1.50;;;;;;;18.40;98.27;64911.41;5070426;28;20243;-55
2023/08/07 01:19:25;;;;;;;1.80;1.70;;;;;;;18.21;99.29;64887.34;5069982;28;20291;-56
2023/08/07 01:22:05;;;;;;;1.95;1.65;;;;;;;18.00;100.00;64864.75;5070070;28;20216;-56
2023/08/07 01:24:31;;;;;;;2.83;1.67;;;;;;;17.88;100.00;64848.97;5070299;28;20180;-55
2023/08/07 01:27:04;;;;;;;1.73;1.60;;;;;;;17.92;100.00;64858.47;5070235;28;20709;-56
2023/08/07 01:29:40;;;;;;;2.00;1.75;;;;;;;17.99;100.00;64860.53;5070226;28;20684;-56
2023/08/07 01:32:09;;;;;;;2.17;2.00;;;;;;;17.85;100.00;64845.09;5051894;28;20208;-55
2023/08/07 01:34:36;;;;;;;1.83;1.73;;;;;;;17.92;100.00;64855.38;5069886;28;20253;-55
2023/08/07 01:37:03;;;;;;;2.10;1.90;;;;;;;17.93;100.00;64857.03;5052108;28;20212;-55
2023/08/07 01:39:30;;;;;;;3.22;2.03;;;;;;;17.94;100.00;64858.13;5052174;28;20204;-56
2023/08/07 01:41:56;;;;;;;2.25;2.15;;;;;;;17.70;100.00;64831.13;5070262;28;20318;-55
2023/08/07 01:44:22;;;;;;;2.47;2.20;;;;;;;17.77;100.00;64839.41;5069815;28;20711;-55
2023/08/07 01:46:47;;;;;;;2.28;2.17;;;;;;;17.82;100.00;64844.91;5070017;28;20225;-54
2023/08/07 01:49:13;;;;;;;2.55;2.38;;;;;;;17.86;100.00;64848.75;5069903;28;20165;-55
2023/08/07 01:51:38;;;;;;;2.72;2.17;;;;;;;17.83;100.00;64846.00;5069972;28;20605;-55
2023/08/07 01:54:04;;;;;;;2.58;2.35;;;;;;;17.73;100.00;64832.44;5069948;28;20678;-56
2023/08/07 01:56:29;;;;;;;2.60;2.40;;;;;;;17.72;100.00;64835.88;5069827;28;20224;-56
2023/08/07 01:58:55;;;;;;;2.78;2.58;;;;;;;17.63;100.00;64826.50;5051812;28;20196;-55
2023/08/07 02:01:20;;;;;;;2.92;2.70;;;;;;;17.72;100.00;64836.41;5069522;28;20295;-55
2023/08/07 02:03:45;;;;;;;2.70;2.50;;;;;;;17.77;100.00;64838.84;5069627;28;20732;-56
2023/08/07 02:06:11;;;;;;;3.70;2.80;;;;;;;17.90;100.00;64853.72;5051895;28;20714;-56
2023/08/07 02:08:36;;;;;;;2.38;2.17;;;;;;;17.57;100.00;64817.34;5069559;28;20189;-55
2023/08/07 02:11:02;;;;;;;2.85;2.20;;;;;;;17.85;100.00;64845.66;5069666;28;20639;-55
2023/08/07 02:13:28;;;;;;;2.20;2.10;;;;;;;17.71;100.00;64832.22;5069600;28;20197;-55
2023/08/07 02:15:53;;;;;;;2.50;2.30;;;;;;;17.69;100.00;64828.03;5069378;28;20674;-60
2023/08/07 02:18:19;;;;;;;3.00;2.67;;;;;;;17.77;100.00;64839.41;5069871;28;20308;-55
2023/08/07 02:20:45;;;;;;;2.60;2.40;;;;;;;17.88;100.00;64850.94;5069446;28;20188;-55
2023/08/07 02:23:11;;;;;;;2.30;2.10;;;;;;;17.73;100.00;64837.53;5069529;28;20213;-55
2023/08/07 02:25:37;;;;;;;2.70;2.10;;;;;;;17.78;100.00;64842.47;5069429;28;20219;-55
2023/08/07 02:28:02;;;;;;;2.72;2.10;;;;;;;17.42;100.00;64800.78;5069657;28;20693;-54
2023/08/07 02:30:28;;;;;;;4.10;2.47;;;;;;;17.56;100.00;64813.69;5069193;28;20556;-55
2023/08/07 02:32:53;;;;;;;2.67;2.50;;;;;;;17.69;100.00;64833.13;5069297;28;20255;-56
2023/08/07 02:35:19;;;;;;;2.80;2.55;;;;;;;17.67;100.00;64828.38;5072245;28;20232;-55
2023/08/07 02:37:44;;;;;;;2.35;2.20;;;;;;;17.60;100.00;64820.66;5073003;28;20217;-57
2023/08/07 02:40:11;;;;;;;2.65;2.45;;;;;;;17.60;100.00;64820.66;5072713;28;20283;-55
2023/08/07 02:42:36;;;;;;;2.20;2.10;;;;;;;17.62;100.00;64822.84;5072513;28;20849;-54
2023/08/07 02:45:02;;;;;;;6.57;2.53;;;;;;;17.89;100.00;64855.19;5072555;28;20424;-55
2023/08/07 02:47:28;;;;;;;2.80;2.53;;;;;;;17.92;100.00;64857.91;5072866;28;20216;-54
2023/08/07 02:49:53;;;;;;;2.20;2.00;;;;;;;17.88;100.00;64850.94;5072524;28;20429;-55
2023/08/07 02:52:19;;;;;;;2.70;2.50;;;;;;;17.61;100.00;64821.75;5072828;28;20271;-56
2023/08/07 02:54:44;;;;;;;3.70;2.95;;;;;;;17.67;100.00;64830.91;5072438;28;20201;-56
2023/08/07 02:57:09;;;;;;;2.50;2.30;;;;;;;17.80;100.00;64840.16;5072388;28;20236;-56
2023/08/07 02:59:35;;;;;;;2.72;2.53;;;;;;;17.95;100.00;64859.25;5072383;28;20748;-58
2023/08/07 03:02:00;;;;;;;3.22;2.88;;;;;;;17.88;100.00;64851.50;5054141;28;20220;-55
2023/08/07 03:04:26;;;;;;;2.95;2.75;;;;;;;17.73;100.00;64835.00;5072696;28;20193;-56
2023/08/07 03:06:51;;;;;;;3.10;2.88;;;;;;;17.38;100.00;64798.94;5072311;28;20706;-55
2023/08/07 03:09:17;;;;;;;3.88;2.75;;;;;;;17.47;100.00;64803.75;5072333;28;20757;-53
2023/08/07 03:11:43;;;;;;;3.80;3.13;;;;;;;17.02;100.00;64759.28;5072558;28;20659;-54
2023/08/07 03:14:08;;;;;;;2.72;2.53;;;;;;;17.26;100.00;64780.63;5072087;28;20680;-55
2023/08/07 03:16:33;;;;;;;3.13;2.92;;;;;;;17.10;100.00;64765.53;5072202;28;20213;-54
2023/08/07 03:18:59;;;;;;;2.90;2.60;;;;;;;17.12;100.00;64770.28;5072038;28;20284;-55
2023/08/07 03:21:25;;;;;;;4.25;2.90;;;;;;;17.17;100.00;64773.78;5072108;28;20204;-52
2023/08/07 03:23:50;;;;;;;3.13;2.83;;;;;;;17.44;100.00;64801.00;5072080;28;20211;-54
2023/08/07 03:26:16;;;;;;;4.28;2.75;;;;;;;17.09;100.00;64767.53;5072006;28;20205;-52
2023/08/07 03:28:41;;;;;;;2.83;2.63;;;;;;;17.24;100.00;64780.97;5072247;28;20748;-52
2023/08/07 03:31:07;;;;;;;3.60;3.30;;;;;;;17.09;100.00;64762.44;5071952;28;20642;-52
2023/08/07 03:33:33;;;;;;;3.00;2.78;;;;;;;17.10;100.00;64768.09;5071902;28;20208;-52
2023/08/07 03:35:58;;;;;;;2.45;2.25;;;;;;;17.14;100.00;64773.03;5071842;28;20303;-52
2023/08/07 03:38:24;;;;;;;3.10;2.83;;;;;;;16.95;100.00;64746.47;5072277;28;20291;-52
2023/08/07 03:40:49;;;;;;;3.17;2.88;;;;;;;16.82;100.00;64734.69;5071772;28;20279;-52
2023/08/07 03:43:15;;;;;;;5.25;2.90;;;;;;;16.75;100.00;64730.63;5071666;28;20200;-52
2023/08/07 03:45:42;;;;;;;3.17;2.83;;;;;;;16.68;100.00;64720.38;5070262;28;20197;-52
2023/08/07 03:48:08;;;;;;;3.00;2.80;;;;;;;16.76;100.00;64731.75;5072079;28;20247;-52
2023/08/07 03:50:39;;;;;;;3.15;2.85;;;;;;;16.73;100.00;64725.34;5071985;28;20225;-52
2023/08/07 03:53:07;;;;;;;4.63;2.75;;;;;;;16.65;100.00;64717.06;5071725;28;20771;-52
2023/08/07 03:55:32;;;;;;;3.00;2.70;;;;;;;16.70;100.00;64725.13;5071492;28;20204;-52
2023/08/07 03:57:58;;;;;;;5.75;3.15;;;;;;;16.74;100.00;64723.91;5071868;28;20216;-53
2023/08/07 04:00:24;;;;;;;2.95;2.75;;;;;;;16.72;100.00;64724.78;5053553;28;20181;-53
2023/08/07 04:02:50;;;;;;;2.40;1.98;;;;;;;16.74;100.00;64727.00;5053397;28;20223;-52
2023/08/07 04:05:15;;;;;;;4.40;2.38;;;;;;;17.25;100.00;64782.59;5071490;28;20576;-53
2023/08/07 04:07:41;;;;;;;3.35;2.63;;;;;;;17.08;100.00;64765.88;5071742;28;20216;-53
2023/08/07 04:10:06;;;;;;;3.10;2.70;;;;;;;16.96;100.00;64748.13;5071742;28;20193;-53
2023/08/07 04:12:32;;;;;;;2.50;2.20;;;;;;;16.97;100.00;64751.22;5071159;28;20254;-52
2023/08/07 04:14:57;;;;;;;3.03;2.67;;;;;;;16.82;100.00;64735.25;5071131;28;20204;-52
2023/08/07 04:17:23;;;;;;;4.32;2.85;;;;;;;16.72;100.00;64724.78;5053447;28;20228;-53
2023/08/07 04:19:48;;;;;;;2.90;2.67;;;;;;;16.74;100.00;64723.91;5071592;28;20219;-53
2023/08/07 04:22:14;;;;;;;2.92;2.67;;;;;;;16.79;100.00;64731.94;5053082;28;20580;-52
2023/08/07 04:24:39;;;;;;;3.13;2.70;;;;;;;17.62;100.00;64822.84;5071155;28;20693;-52
2023/08/07 04:27:05;;;;;;;3.35;3.00;;;;;;;18.22;100.00;64886.44;5052806;28;20213;-52
2023/08/07 04:29:31;;;;;;;2.65;2.45;;;;;;;18.41;95.89;64909.97;5071047;28;20208;-53
2023/08/07 04:31:56;;;;;;;3.08;2.83;;;;;;;19.03;98.41;64977.81;5052706;28;20562;-52
2023/08/07 04:34:22;;;;;;;3.15;2.55;;;;;;;19.42;94.80;65020.34;5071048;28;20208;-52
2023/08/07 04:36:47;;;;;;;2.75;2.55;;;;;;;19.26;91.32;65002.66;5070878;28;20264;-52
2023/08/07 04:39:13;;;;;;;4.18;2.33;;;;;;;19.03;90.64;64977.28;5070777;28;20196;-54
2023/08/07 04:41:39;;;;;;;4.10;2.70;;;;;;;18.81;96.48;64953.56;5070755;28;20205;-53
2023/08/07 04:44:04;;;;;;;2.83;2.63;;;;;;;19.06;94.82;64981.16;5070704;28;20526;-52
2023/08/07 04:46:30;;;;;;;3.45;2.03;;;;;;;18.47;92.52;64918.03;5071038;28;20308;-53
2023/08/07 04:48:56;;;;;;;2.70;2.50;;;;;;;18.88;96.02;64960.72;5070697;28;20208;-52
2023/08/07 04:51:22;;;;;;;4.25;2.40;;;;;;;19.83;96.94;65062.53;5052534;28;20626;-52
2023/08/07 04:53:50;;;;;;;3.70;3.03;;;;;;;19.91;90.45;65077.03;5052613;28;20181;-52
2023/08/07 04:56:17;;;;;;;3.65;2.88;;;;;;;19.59;89.86;65036.56;5070496;28;20224;-53
2023/08/07 04:58:42;;;;;;;3.60;2.65;;;;;;;19.06;95.01;64980.59;5070481;28;20203;-54
2023/08/07 05:01:08;;;;;;;3.00;2.70;;;;;;;19.08;89.55;64983.34;5052417;28;20224;-52
2023/08/07 05:03:34;;;;;;;4.18;2.95;;;;;;;19.18;91.26;64991.84;5070583;28;20291;-51
2023/08/07 05:06:01;;;;;;;2.90;2.58;;;;;;;19.26;89.63;65005.78;5070463;28;20620;-52
2023/08/07 05:08:26;;;;;;;5.03;2.42;;;;;;;18.70;90.29;64940.88;5070820;28;20193;-52
2023/08/07 05:10:52;;;;;;;3.40;2.75;;;;;;;18.68;92.51;64941.78;5070306;28;20235;-52
2023/08/07 05:13:17;;;;;;;14.07;8.40;;;;;;;19.53;99.11;65035.06;5070330;28;20193;-55
2023/08/07 05:15:43;;;;;;;8.43;3.88;;;;;;;19.69;91.00;65052.72;5070651;28;20193;-54
2023/08/07 05:18:08;;;;;;;9.10;5.03;;;;;;;20.04;93.56;65088.81;5052541;28;20254;-52
2023/08/07 05:20:34;;;;;;;2.83;2.50;;;;;;;19.73;84.04;65052.03;5070053;28;20216;-52
2023/08/07 05:22:59;;;;;;;3.40;2.70;;;;;;;19.38;87.92;65012.81;5070089;28;20701;-51
2023/08/07 05:25:25;;;;;;;2.85;2.60;;;;;;;18.92;87.46;64965.16;5070271;28;20204;-52
2023/08/07 05:27:51;;;;;;;3.15;2.35;;;;;;;18.66;90.06;64934.47;5070575;28;20223;-53
2023/08/07 05:30:16;;;;;;;6.40;3.38;;;;;;;19.51;100.00;65029.75;5070139;28;20204;-52
2023/08/07 05:32:42;;;;;;;3.05;2.85;;;;;;;20.08;94.51;65092.69;5069360;28;20719;-55
2023/08/07 05:35:08;;;;;;;4.55;2.60;;;;;;;20.49;86.00;65137.44;5069138;28;20227;-51
2023/08/07 05:37:34;;;;;;;3.00;2.53;;;;;;;20.82;83.62;65174.50;5068825;28;20702;-51
2023/08/07 05:40:01;;;;;;;2.85;2.60;;;;;;;21.10;80.84;65202.34;5069882;28;20193;-52
2023/08/07 05:42:26;;;;;;;3.00;2.35;;;;;;;21.24;76.34;65217.84;5069779;28;20219;-51
2023/08/07 05:44:52;;;;;;;5.32;2.55;;;;;;;21.29;79.39;65222.81;5069936;28;20200;-51
2023/08/07 05:47:17;;;;;;;1.90;1.80;;;;;;;21.51;76.51;65247.16;5070209;28;20295;-53
2023/08/07 05:49:43;;;;;;;3.78;2.08;;;;;;;21.92;74.08;65289.94;5069812;28;20211;-52
2023/08/07 05:52:08;;;;;;;2.30;2.10;;;;;;;20.84;74.41;65174.16;5069965;28;20297;-53
2023/08/07 05:54:34;;;;;;;2.80;2.17;;;;;;;21.46;75.10;65244.72;5051734;28;20181;-52
2023/08/07 05:57:00;;;;;;;3.13;2.00;;;;;;;21.85;75.36;65287.34;5070074;28;20219;-51
2023/08/07 05:59:25;;;;;;;1.98;1.88;;;;;;;21.52;70.78;65251.38;5069729;28;20204;-52
2023/08/07 06:01:51;;;;;;;5.45;2.15;;;;;;;21.40;73.91;65232.97;5070119;28;20298;-56
2023/08/07 06:04:17;;;;;;;2.40;2.30;;;;;;;20.86;74.04;65178.34;5069677;28;20197;-52
2023/08/07 06:06:43;;;;;;;2.30;2.08;;;;;;;20.87;74.97;65177.44;5069450;28;20231;-52
2023/08/07 06:09:09;;;;;;;2.13;1.88;;;;;;;21.18;75.70;65208.63;5070545;28;20196;-53
2023/08/07 06:11:35;;;;;;;2.65;2.13;;;;;;;21.45;68.78;65241.03;5054956;28;20221;-52
2023/08/07 06:14:01;;;;;;;1.80;1.70;;;;;;;21.33;69.88;65227.78;5072943;28;20289;-51
2023/08/07 06:16:27;;;;;;;4.30;2.08;;;;;;;20.72;74.94;65162.88;5073271;28;20287;-51
2023/08/07 06:18:53;;;;;;;4.47;1.95;;;;;;;20.63;73.47;65150.38;5055105;28;20201;-52
2023/08/07 06:21:19;;;;;;;2.17;2.00;;;;;;;21.32;73.45;65229.25;5072661;28;20209;-51
2023/08/07 06:23:45;;;;;;;3.63;2.08;;;;;;;21.27;69.75;65221.13;5073076;28;20185;-51
2023/08/07 06:26:11;;;;;;;1.90;1.80;;;;;;;21.85;71.87;65284.22;5054859;28;20247;-52
2023/08/07 06:28:36;;;;;;;2.03;1.80;;;;;;;21.87;67.77;65286.44;5054820;28;20204;-51
2023/08/07 06:31:03;;;;;;;1.90;1.80;;;;;;;21.30;66.75;65224.47;5054505;28;20311;-51
2023/08/07 06:33:29;;;;;;;4.47;2.20;;;;;;;21.02;69.81;65196.06;5072627;28;20204;-53
2023/08/07 06:35:54;;;;;;;3.75;1.52;;;;;;;21.54;70.99;65251.00;5072724;28;20205;-57
2023/08/07 06:38:19;;;;;;;2.10;1.92;;;;;;;22.07;67.17;65308.56;5072571;28;20192;-51
2023/08/07 06:40:45;;;;;;;1.88;1.77;;;;;;;22.12;65.14;65316.69;5072448;28;20789;-52
2023/08/07 06:43:10;;;;;;;1.95;1.85;;;;;;;22.35;65.35;65339.56;5054506;28;20212;-53
2023/08/07 06:45:36;;;;;;;1.80;1.70;;;;;;;22.40;63.33;65347.66;5072981;28;20712;-52
2023/08/07 06:48:01;;;;;;;2.33;2.10;;;;;;;22.19;64.35;65321.84;5072879;28;20417;-52
2023/08/07 06:50:26;;;;;;;1.70;1.60;;;;;;;21.88;60.89;65288.09;5072356;28;20200;-51
2023/08/07 06:52:52;;;;;;;2.78;2.17;;;;;;;22.38;62.88;65342.88;5072030;28;20307;-52
2023/08/07 06:55:18;;;;;;;1.90;1.80;;;;;;;22.53;61.65;65359.47;5072274;28;20180;-51
2023/08/07 06:57:44;;;;;;;2.35;1.85;;;;;;;22.73;60.61;65381.63;5072623;28;20249;-51
2023/08/07 07:00:10;;;;;;;1.60;1.50;;;;;;;21.95;57.39;65295.28;5072203;28;20284;-52
2023/08/07 07:02:36;;;;;;;1.45;1.35;;;;;;;22.05;58.40;65308.91;5072361;28;20213;-52
2023/08/07 07:05:02;;;;;;;1.80;1.52;;;;;;;21.95;56.92;65295.84;5072541;28;20196;-51
2023/08/07 07:07:27;;;;;;;2.00;1.50;;;;;;;22.32;58.85;65338.81;5072260;28;20236;-51
2023/08/07 07:09:53;;;;;;;2.83;1.30;;;;;;;22.41;58.79;65346.19;5054039;28;20197;-53
2023/08/07 07:12:18;;;;;;;1.70;1.60;;;;;;;23.00;57.36;65411.00;5072189;28;20657;-53
2023/08/07 07:14:44;;;;;;;3.13;1.50;;;;;;;22.85;56.67;65394.38;5072628;28;20625;-51
2023/08/07 07:17:09;;;;;;;1.77;1.45;;;;;;;23.12;55.41;65424.84;5072475;28;20699;-51
2023/08/07 07:19:35;;;;;;;1.50;1.40;;;;;;;22.85;55.37;65394.94;5071762;28;20738;-53
2023/08/07 07:22:00;;;;;;;2.50;1.60;;;;;;;22.74;54.92;65382.19;5054020;28;20224;-52
2023/08/07 07:24:25;;;;;;;1.50;1.25;;;;;;;23.08;56.37;65419.84;5071725;28;20193;-52
2023/08/07 07:26:51;;;;;;;1.73;1.63;;;;;;;23.27;54.42;65444.03;5053813;28;20205;-53
2023/08/07 07:29:18;;;;;;;1.92;1.15;;;;;;;23.16;54.12;65429.28;5071986;28;20235;-51
2023/08/07 07:31:44;;;;;;;1.42;1.33;;;;;;;23.14;53.90;65426.50;5071709;28;20212;-51
2023/08/07 07:34:09;;;;;;;1.30;1.20;;;;;;;23.19;55.39;65435.16;5072163;28;20670;-52
2023/08/07 07:36:42;;;;;;;1.17;1.17;;;;;;;23.21;55.79;65434.25;5071909;28;20216;-52
2023/08/07 07:39:07;;;;;;;3.10;1.35;;;;;;;22.97;53.83;65407.66;5071513;28;20212;-50
2023/08/07 07:41:33;;;;;;;1.50;1.40;;;;;;;22.67;56.47;65377.56;5071770;28;20204;-51
2023/08/07 07:43:59;;;;;;;1.70;1.40;;;;;;;23.09;56.94;65421.50;5054048;28;20257;-51
2023/08/07 07:46:25;;;;;;;1.63;1.50;;;;;;;23.00;56.06;65411.56;5071739;28;20659;-52
2023/08/07 07:48:51;;;;;;;2.85;1.70;;;;;;;23.01;55.18;65412.66;5071639;28;20204;-51
2023/08/07 07:51:16;;;;;;;1.80;1.70;;;;;;;23.07;53.79;65418.75;5071536;28;20212;-56
2023/08/07 07:53:42;;;;;;;1.50;1.40;;;;;;;23.41;54.40;65455.88;5071356;28;20722;-52
2023/08/07 07:56:08;;;;;;;2.67;1.60;;;;;;;23.26;53.08;65440.34;5071378;28;20266;-51
2023/08/07 07:58:33;;;;;;;2.30;1.33;;;;;;;23.31;55.96;65445.34;5071381;28;20577;-52
2023/08/07 08:00:59;;;;;;;1.77;1.40;;;;;;;23.22;53.13;65435.38;5071368;28;20634;-57
2023/08/07 08:03:24;;;;;;;1.85;1.30;;;;;;;23.16;54.12;65429.28;5071530;28;20197;-52
2023/08/07 08:05:51;;;;;;;2.15;1.40;;;;;;;23.42;53.45;65457.53;5053404;28;20227;-53
2023/08/07 08:08:17;;;;;;;1.90;1.30;;;;;;;23.65;53.95;65479.91;5071483;28;20342;-53
2023/08/07 08:10:44;;;;;;;2.17;1.40;;;;;;;23.66;54.27;65483.56;5071401;28;20295;-52
2023/08/07 08:13:10;;;;;;;1.50;1.40;;;;;;;23.57;52.24;65471.03;5071623;28;20204;-53
2023/08/07 08:15:35;;;;;;;2.85;1.50;;;;;;;23.45;54.42;65458.31;5071573;28;20201;-56
2023/08/07 08:18:00;;;;;;;1.40;1.30;;;;;;;23.51;54.26;65467.53;5070975;28;20212;-52
2023/08/07 08:20:26;;;;;;;1.88;1.38;;;;;;;23.60;54.93;65474.91;5071046;28;20701;-52
2023/08/07 08:22:51;;;;;;;1.77;1.65;;;;;;;23.81;53.43;65500.22;5070831;28;20262;-52
2023/08/07 08:25:20;;;;;;;1.90;1.67;;;;;;;24.12;53.55;65534.59;5071044;28;20651;-52
2023/08/07 08:27:45;;;;;;;2.58;1.42;;;;;;;24.36;52.00;65560.66;5071082;28;20228;-53
2023/08/07 08:30:11;;;;;;;2.22;1.50;;;;;;;24.33;51.47;65557.88;5070810;28;20209;-52
2023/08/07 08:32:39;;;;;;;1.58;1.40;;;;;;;24.31;51.84;65553.09;5052225;28;20215;-52
2023/08/07 08:35:05;;;;;;;1.67;1.10;;;;;;;24.27;50.00;65551.22;5070933;28;20220;-52
2023/08/07 08:37:31;;;;;;;3.28;1.52;;;;;;;24.27;53.36;65550.66;5070856;28;20296;-53
2023/08/07 08:39:56;;;;;;;2.60;1.52;;;;;;;24.30;52.51;65554.53;5070768;28;20246;-55
2023/08/07 08:42:22;;;;;;;1.83;1.48;;;;;;;24.02;50.18;65520.91;5052514;28;20346;-52
2023/08/07 08:45:10;;;;;;;1.35;1.25;;;;;;;24.03;51.34;65522.59;5071178;28;20220;-52
2023/08/07 08:47:36;;;;;;;2.90;1.52;;;;;;;24.14;51.39;65537.38;5070776;28;20228;-52
2023/08/07 08:50:06;;;;;;;1.60;1.50;;;;;;;23.91;50.63;65509.28;5070663;28;20180;-52
2023/08/07 08:52:32;;;;;;;3.20;1.40;;;;;;;24.16;51.09;65536.44;5071105;28;20235;-53
2023/08/07 08:54:58;;;;;;;1.25;1.15;;;;;;;24.15;50.42;65537.91;5052563;28;20579;-53
2023/08/07 08:57:28;;;;;;;1.50;1.40;;;;;;;24.23;47.67;65546.22;5070330;28;20215;-52
2023/08/07 08:59:56;;;;;;;1.70;1.60;;;;;;;23.85;48.81;65502.63;5070516;28;20211;-52
2023/08/07 09:02:21;;;;;;;1.15;1.08;;;;;;;23.65;50.01;65482.47;5070724;28;20208;-53
2023/08/07 09:04:47;;;;;;;1.38;1.27;;;;;;;23.63;48.91;65480.81;5052622;28;20507;-51
2023/08/07 09:07:16;;;;;;;1.20;1.10;;;;;;;23.55;48.67;65471.41;5070184;28;20359;-51
2023/08/07 09:09:41;;;;;;;1.20;1.10;;;;;;;23.88;48.86;65508.53;5070247;28;20686;-51
2023/08/07 09:12:16;;;;;;;2.20;1.17;;;;;;;23.96;48.18;65516.81;5070125;28;20216;-51
2023/08/07 09:14:44;;;;;;;1.20;1.10;;;;;;;24.34;49.76;65556.41;5070966;28;20222;-55
2023/08/07 09:17:12;;;;;;;1.85;1.30;;;;;;;24.57;48.61;65581.91;5070527;28;20212;-51
2023/08/07 09:19:40;;;;;;;1.50;1.40;;;;;;;24.68;48.44;65596.72;5070458;28;20188;-53
2023/08/07 09:22:06;;;;;;;2.45;1.77;;;;;;;24.52;48.39;65578.97;5070566;28;20221;-50
2023/08/07 09:24:32;;;;;;;1.50;1.40;;;;;;;24.32;48.24;65556.22;5070477;28;20201;-51
2023/08/07 09:26:58;;;;;;;1.75;1.52;;;;;;;24.59;47.23;65586.72;5069898;28;20608;-52
2023/08/07 09:29:24;;;;;;;1.30;1.00;;;;;;;24.87;46.12;65617.78;5070039;28;20204;-52
2023/08/07 09:31:56;;;;;;;1.10;1.10;;;;;;;24.75;48.86;65601.34;5070126;28;20217;-52
2023/08/07 09:34:22;;;;;;;1.55;1.10;;;;;;;25.12;48.43;65644.44;5068300;28;20718;-52
2023/08/07 09:36:48;;;;;;;2.25;1.30;;;;;;;24.94;46.09;65625.00;5067902;28;20205;-53
2023/08/07 09:39:14;;;;;;;1.42;1.33;;;;;;;25.30;47.01;65664.41;5067638;28;20307;-58
2023/08/07 09:41:40;;;;;;;2.67;1.23;;;;;;;25.66;45.87;65702.34;5069090;28;20200;-52
2023/08/07 09:44:12;;;;;;;1.38;1.27;;;;;;;25.96;44.58;65732.53;5071291;28;20257;-50
2023/08/07 09:46:43;;;;;;;1.52;1.42;;;;;;;26.12;46.33;65755.47;5073588;28;20252;-51
2023/08/07 09:49:08;;;;;;;1.50;1.40;;;;;;;26.00;44.51;65742.13;5073407;28;20207;-51
2023/08/07 09:51:45;;;;;;;1.30;1.20;;;;;;;26.25;44.38;65767.34;5073467;28;20591;-51
2023/08/07 09:54:11;;;;;;;2.28;1.80;;;;;;;26.01;43.79;65743.25;5073629;28;20196;-51
2023/08/07 09:56:40;;;;;;;2.17;1.40;;;;;;;25.72;43.58;65711.03;5073346;28;20266;-51
2023/08/07 09:59:06;;;;;;;1.88;1.50;;;;;;;25.34;45.83;65669.41;5055471;28;20192;-51
2023/08/07 10:01:32;;;;;;;2.63;1.30;;;;;;;25.17;45.64;65645.38;5073350;28;20213;-51
2023/08/07 10:03:59;;;;;;;1.55;1.10;;;;;;;25.25;45.08;65656.28;5072351;28;20215;-52
2023/08/07 10:06:25;;;;;;;1.95;1.65;;;;;;;25.32;44.67;65667.19;5071574;28;20232;-51
2023/08/07 10:08:52;;;;;;;1.27;1.17;;;;;;;25.44;44.37;65679.97;5073001;28;20663;-52
2023/08/07 10:11:17;;;;;;;2.65;1.27;;;;;;;25.78;43.47;65715.69;5073120;28;20734;-52
2023/08/07 10:13:43;;;;;;;1.35;1.25;;;;;;;26.09;43.27;65752.16;5073075;28;20296;-53
2023/08/07 10:16:09;;;;;;;1.33;1.23;;;;;;;26.09;43.72;65752.16;5073147;28;20251;-53
2023/08/07 10:18:35;;;;;;;1.00;1.00;;;;;;;26.20;43.03;65764.38;5072957;28;20729;-58
2023/08/07 10:21:02;;;;;;;1.33;1.23;;;;;;;25.79;42.30;65716.81;5072922;28;20209;-62
2023/08/07 10:23:28;;;;;;;1.58;1.15;;;;;;;26.26;42.06;65771.03;5073125;28;20199;-51
2023/08/07 10:25:55;;;;;;;1.20;1.20;;;;;;;26.34;43.25;65779.38;5072961;28;20209;-52
2023/08/07 10:28:24;;;;;;;1.40;1.30;;;;;;;26.70;42.28;65816.22;5072822;28;20262;-52
2023/08/07 10:30:51;;;;;;;3.83;1.60;;;;;;;26.78;42.66;65827.72;5072798;28;20208;-52
2023/08/07 10:33:25;;;;;;;1.17;1.10;;;;;;;27.32;41.06;65885.16;5055063;28;20201;-51
2023/08/07 10:35:52;;;;;;;1.42;1.33;;;;;;;27.34;41.21;65890.56;5072758;28;20196;-52
2023/08/07 10:38:22;;;;;;;1.10;1.10;;;;;;;26.89;41.36;65837.91;5072837;28;20192;-53
2023/08/07 10:41:02;;;;;;;3.20;1.50;;;;;;;26.12;43.34;65755.47;5072702;28;20213;-52
2023/08/07 10:43:29;;;;;;;1.42;1.33;;;;;;;26.53;41.99;65801.03;5072946;28;20211;-51
2023/08/07 10:46:02;;;;;;;1.52;1.42;;;;;;;26.63;42.74;65809.56;5072305;28;20197;-52
2023/08/07 10:48:28;;;;;;;4.60;1.40;;;;;;;26.59;41.32;65807.13;5072480;28;20228;-52
2023/08/07 10:50:53;;;;;;;1.13;1.13;;;;;;;27.07;41.43;65860.50;5072515;28;20251;-52
2023/08/07 10:53:36;;;;;;;1.00;1.00;;;;;;;26.87;41.30;65835.13;5072972;28;20204;-55
2023/08/07 10:56:07;;;;;;;1.98;1.30;;;;;;;27.01;40.97;65850.69;5071741;28;20216;-52
2023/08/07 10:58:34;;;;;;;2.10;1.58;;;;;;;27.80;41.95;65938.56;5072580;28;20213;-54
2023/08/07 11:01:19;;;;;;;3.78;2.40;;;;;;;27.74;40.34;65931.31;5072258;28;20227;-50
2023/08/07 11:03:50;;;;;;;1.85;1.17;;;;;;;27.92;40.43;65954.50;5072408;28;20216;-53
2023/08/07 11:06:17;;;;;;;1.88;1.38;;;;;;;28.11;38.94;65973.06;5054301;28;20209;-53
2023/08/07 11:08:43;;;;;;;1.40;1.30;;;;;;;27.99;39.17;65959.72;5072274;28;20197;-53
2023/08/07 11:11:09;;;;;;;1.95;1.13;;;;;;;27.79;38.73;65940.03;5072511;28;20208;-57
2023/08/07 11:13:34;;;;;;;1.35;1.27;;;;;;;28.13;39.93;65975.28;5072297;28;20366;-52
2023/08/07 11:16:03;;;;;;;1.95;1.33;;;;;;;28.46;38.68;66008.84;5071943;28;20201;-52
2023/08/07 11:18:30;;;;;;;1.30;1.20;;;;;;;28.29;40.52;65992.53;5071863;28;20193;-52
2023/08/07 11:20:56;;;;;;;1.17;1.10;;;;;;;28.30;39.18;65993.63;5072063;28;20178;-52
2023/08/07 11:23:25;;;;;;;1.20;1.10;;;;;;;27.34;40.43;65890.56;5072213;28;20221;-53
2023/08/07 11:25:52;;;;;;;2.33;1.25;;;;;;;27.45;40.23;65899.63;5072116;28;20254;-55
2023/08/07 11:28:22;;;;;;;2.55;1.50;;;;;;;27.32;41.78;65888.31;5071666;28;20291;-52